Time;durP1;ratioP1;P1;durP2;ratioP2;P2;SDS_P1;SDS_P2;PMS_P1;PMS_P2;Temp;Humidity;BMP_temperature;BMP_pressure;BME280_temperature;BME280_humidity;BME280_pressure;Samples;Min_cycle;Max_cycle;Signal;HPM_P1;HPM_P2
2021/06/12 00:00:30;;;;;;;10.95;7.03;;;;;;;17.82;75.54;100009.83;1785054;80;20957;-75
2021/06/12 00:02:54;;;;;;;10.13;7.05;;;;;;;17.81;75.70;100006.84;1782534;80;21085;-75
2021/06/12 00:05:20;;;;;;;12.55;7.12;;;;;;;17.64;76.36;100005.63;1784683;80;20945;-75
2021/06/12 00:07:46;;;;;;;11.83;7.87;;;;;;;17.53;76.98;100015.88;1783878;80;21236;-75
2021/06/12 00:10:15;;;;;;;11.22;7.90;;;;;;;17.49;77.71;100011.97;1772321;80;20922;-75
2021/06/12 00:12:42;;;;;;;11.65;7.90;;;;;;;17.46;77.94;100002.22;1781908;79;20965;-75
2021/06/12 00:15:09;;;;;;;12.30;7.53;;;;;;;17.42;78.29;100011.16;1782933;80;21009;-75
2021/06/12 00:17:35;;;;;;;;;;;;;;;17.40;79.01;100007.86;1787255;80;21060;-75
2021/06/12 00:20:01;;;;;;;11.53;8.08;;;;;;;17.17;80.10;100007.75;1783931;80;21857;-74
2021/06/12 00:22:27;;;;;;;15.10;8.10;;;;;;;17.16;79.85;100002.09;1783851;80;20948;-76
2021/06/12 00:24:52;;;;;;;13.65;8.00;;;;;;;17.07;80.29;99996.63;1782932;80;20964;-74
2021/06/12 00:27:18;;;;;;;13.35;7.75;;;;;;;17.13;79.71;99990.48;1783952;80;21071;-75
2021/06/12 00:29:44;;;;;;;15.25;8.33;;;;;;;17.05;80.30;99996.02;1782255;80;20991;-75
2021/06/12 00:32:10;;;;;;;11.95;7.90;;;;;;;17.00;80.41;100000.63;1783857;80;21747;-74
2021/06/12 00:34:35;;;;;;;13.62;8.35;;;;;;;17.03;80.44;99999.42;1783934;80;21024;-75
2021/06/12 00:37:01;;;;;;;13.53;8.40;;;;;;;17.00;80.64;99997.16;1784371;80;20902;-75
2021/06/12 00:39:27;;;;;;;13.78;8.60;;;;;;;17.03;79.95;99986.89;1784072;80;21115;-75
2021/06/12 00:41:53;;;;;;;13.78;8.18;;;;;;;16.97;80.41;99987.70;1783989;80;20886;-75
2021/06/12 00:44:18;;;;;;;13.43;8.60;;;;;;;16.96;80.09;99984.71;1783713;80;21195;-75
2021/06/12 00:46:44;;;;;;;13.88;7.95;;;;;;;16.97;80.04;99978.36;1782769;80;20866;-75
2021/06/12 00:49:10;;;;;;;12.80;8.10;;;;;;;17.08;79.50;99976.94;1782845;80;20897;-75
2021/06/12 00:51:35;;;;;;;10.65;7.83;;;;;;;17.13;79.47;99978.48;1783250;80;21149;-74
2021/06/12 00:54:01;;;;;;;12.68;8.03;;;;;;;17.19;79.49;99980.34;1784613;80;20961;-74
2021/06/12 00:56:27;;;;;;;14.45;7.97;;;;;;;17.21;79.21;99979.64;1782656;80;21055;-74
2021/06/12 00:58:53;;;;;;;13.15;8.40;;;;;;;17.17;79.45;99967.72;1783815;80;20882;-75
2021/06/12 01:01:20;;;;;;;15.53;8.98;;;;;;;17.32;79.09;99972.84;1748952;80;21827;-75
2021/06/12 01:03:46;;;;;;;;;;;;;;;17.39;78.75;99971.53;1786060;80;21109;-75
2021/06/12 01:06:16;;;;;;;15.45;8.45;;;;;;;17.43;78.35;99970.08;1783590;80;20159;-74
2021/06/12 01:08:42;;;;;;;14.85;8.48;;;;;;;17.42;78.04;99964.45;1784369;80;21033;-74
2021/06/12 01:11:08;;;;;;;13.55;8.78;;;;;;;17.42;77.83;99960.44;1782468;80;20933;-75
2021/06/12 01:14:03;;;;;;;12.33;8.45;;;;;;;17.47;77.74;99963.31;1784956;80;21000;-75
2021/06/12 01:16:37;;;;;;;11.85;8.48;;;;;;;17.45;77.75;99957.86;1776195;80;21540;-74
2021/06/12 01:19:18;;;;;;;13.00;8.30;;;;;;;17.34;77.87;99957.95;1782973;80;21068;-74
2021/06/12 01:21:45;;;;;;;11.90;7.35;;;;;;;17.24;78.39;99963.71;1744603;80;21399;-73
2021/06/12 01:24:39;;;;;;;10.10;7.33;;;;;;;17.27;77.72;99965.97;1782680;80;20953;-74
2021/06/12 01:27:35;;;;;;;11.60;7.33;;;;;;;17.34;77.43;99955.29;1781201;80;21307;-74
2021/06/12 01:30:22;;;;;;;11.28;7.20;;;;;;;17.39;76.68;99947.51;1782697;80;21100;-73
2021/06/12 01:32:59;;;;;;;12.73;6.58;;;;;;;17.44;76.34;99949.56;1784069;80;21614;-75
2021/06/12 01:35:49;;;;;;;12.40;6.85;;;;;;;17.35;76.45;99948.94;1782424;78;21040;-74
2021/06/12 01:38:23;;;;;;;10.60;6.95;;;;;;;17.40;76.26;99946.46;1748656;80;21272;-74
2021/06/12 01:40:49;;;;;;;12.00;6.40;;;;;;;17.35;75.88;99955.61;1783136;80;21915;-76
2021/06/12 01:43:15;;;;;;;11.78;6.60;;;;;;;17.24;75.96;99953.04;1783260;80;21933;-74
2021/06/12 01:45:42;;;;;;;10.93;6.70;;;;;;;17.12;76.41;99952.84;1783494;80;21129;-75
2021/06/12 01:48:09;;;;;;;8.80;5.92;;;;;;;17.04;76.71;99957.86;1782812;80;21267;-74
2021/06/12 01:50:35;;;;;;;9.53;6.20;;;;;;;17.02;76.64;99955.08;1782548;80;21033;-73
2021/06/12 01:53:01;;;;;;;10.50;6.72;;;;;;;17.03;76.34;99956.73;1723269;80;20871;-75
2021/06/12 01:55:30;;;;;;;9.00;5.92;;;;;;;16.88;76.90;99954.76;1753790;80;21105;-75
2021/06/12 01:57:56;;;;;;;8.28;5.97;;;;;;;16.92;76.78;99953.30;1749569;80;21045;-75
2021/06/12 02:00:22;;;;;;;11.60;6.75;;;;;;;16.99;76.43;99950.96;1782897;80;21018;-74
2021/06/12 02:02:48;;;;;;;10.63;6.85;;;;;;;16.81;77.09;99954.20;1753890;80;20862;-75
2021/06/12 02:05:18;;;;;;;10.10;6.65;;;;;;;16.63;77.52;99951.28;1784248;80;21028;-75
2021/06/12 02:07:46;;;;;;;9.15;6.28;;;;;;;16.50;78.18;99949.40;1782577;80;21277;-74
2021/06/12 02:10:16;;;;;;;12.28;6.37;;;;;;;16.63;77.64;99949.95;1779023;80;20993;-73
2021/06/12 02:12:40;;;;;;;9.65;6.37;;;;;;;16.70;77.61;99953.43;1782738;80;22414;-74
2021/06/12 02:15:10;;;;;;;12.07;6.78;;;;;;;16.64;77.42;99954.23;1785187;80;20969;-74
2021/06/12 02:17:37;;;;;;;12.07;6.65;;;;;;;16.62;77.33;99949.63;1778612;80;21074;-73
2021/06/12 02:20:06;;;;;;;12.90;6.92;;;;;;;16.50;77.95;99950.73;1783937;80;21555;-74
2021/06/12 02:22:32;;;;;;;10.15;6.67;;;;;;;16.46;78.08;99955.63;1756681;80;21120;-74
2021/06/12 02:24:58;;;;;;;10.25;6.65;;;;;;;16.61;77.42;99955.97;1784602;80;21815;-74
2021/06/12 02:27:23;;;;;;;9.73;6.20;;;;;;;16.41;78.12;99962.59;1783998;80;21270;-75
2021/06/12 02:29:49;;;;;;;8.05;6.30;;;;;;;16.46;77.67;99956.95;1721200;80;20942;-73
2021/06/12 02:32:15;;;;;;;7.87;6.00;;;;;;;16.49;77.54;99953.89;1783708;80;20909;-74
2021/06/12 02:34:41;;;;;;;7.62;6.22;;;;;;;16.56;77.16;99958.42;1783517;80;21082;-74
2021/06/12 02:37:07;;;;;;;10.35;6.28;;;;;;;16.46;77.32;99968.95;1784698;80;21074;-74
2021/06/12 02:39:33;;;;;;;8.58;6.05;;;;;;;16.43;77.25;99962.69;1783650;80;20918;-74
2021/06/12 02:42:00;;;;;;;9.07;6.13;;;;;;;16.28;77.73;99967.33;1784014;80;21880;-74
2021/06/12 02:44:26;;;;;;;10.03;6.25;;;;;;;16.27;77.61;99963.05;1783065;80;22587;-74
2021/06/12 02:46:52;;;;;;;9.35;6.40;;;;;;;16.25;77.65;99960.58;1783296;80;21072;-74
2021/06/12 02:49:19;;;;;;;11.00;6.28;;;;;;;16.23;77.67;99957.78;1784451;80;21382;-74
2021/06/12 02:51:49;;;;;;;8.25;5.80;;;;;;;16.30;77.56;99968.78;1751085;80;21099;-74
2021/06/12 02:54:15;;;;;;;9.03;6.47;;;;;;;16.22;77.81;99960.12;1780190;78;21159;-75
2021/06/12 02:56:41;;;;;;;8.78;6.80;;;;;;;16.27;77.71;99963.05;1780917;80;21084;-74
2021/06/12 02:59:10;;;;;;;9.28;6.28;;;;;;;16.25;77.85;99955.73;1780705;80;20863;-74
2021/06/12 03:01:37;;;;;;;11.03;6.58;;;;;;;16.31;77.45;99950.95;1783965;80;21111;-75
2021/06/12 03:04:03;;;;;;;8.95;6.58;;;;;;;16.30;77.40;99947.47;1783609;80;20954;-76
2021/06/12 03:06:29;;;;;;;10.47;6.57;;;;;;;16.39;77.16;99945.47;1783814;80;21024;-75
2021/06/12 03:08:55;;;;;;;9.53;6.55;;;;;;;16.48;76.71;99945.60;1783812;80;20890;-75
2021/06/12 03:11:20;;;;;;;9.85;6.55;;;;;;;16.46;76.71;99946.29;1783206;80;20874;-75
2021/06/12 03:13:47;;;;;;;9.30;6.40;;;;;;;16.48;76.54;99941.60;1748385;80;21924;-75
2021/06/12 03:16:14;;;;;;;11.33;6.50;;;;;;;16.47;76.29;99942.61;1784145;80;21154;-75
2021/06/12 03:18:46;;;;;;;10.15;6.47;;;;;;;16.56;76.09;99942.42;1724111;80;21061;-76
2021/06/12 03:21:12;;;;;;;8.15;6.20;;;;;;;16.61;75.73;99937.30;1746712;80;21053;-75
2021/06/12 03:23:38;;;;;;;9.25;6.60;;;;;;;16.68;75.69;99947.48;1782200;80;20905;-75
2021/06/12 03:26:04;;;;;;;11.33;6.25;;;;;;;16.76;75.38;99947.30;1782007;80;21130;-74
2021/06/12 03:28:30;;;;;;;10.15;6.92;;;;;;;16.85;75.07;99947.94;1783472;80;21124;-76
2021/06/12 03:30:56;;;;;;;9.63;6.65;;;;;;;16.89;75.00;99943.05;1778598;80;21594;-76
2021/06/12 03:33:23;;;;;;;8.68;5.87;;;;;;;17.01;74.82;99942.75;1784636;80;21028;-74
2021/06/12 03:35:49;;;;;;;14.35;6.47;;;;;;;17.08;74.58;99934.78;1782727;80;21019;-76
2021/06/12 03:38:14;;;;;;;10.00;6.58;;;;;;;17.08;74.25;99940.92;1785071;80;21276;-74
2021/06/12 03:40:40;;;;;;;9.25;6.17;;;;;;;17.03;74.41;99934.87;1783777;80;20913;-75
2021/06/12 03:43:06;;;;;;;13.28;6.90;;;;;;;17.01;74.43;99932.92;1753553;80;20875;-75
2021/06/12 03:45:32;;;;;;;9.70;6.35;;;;;;;17.07;74.67;99927.79;1783451;80;20949;-76
2021/06/12 03:48:02;;;;;;;11.78;7.12;;;;;;;17.06;74.49;99928.31;1783161;80;20874;-76
2021/06/12 03:50:27;;;;;;;12.53;7.05;;;;;;;17.13;74.41;99931.78;1755708;80;21181;-75
2021/06/12 03:52:53;;;;;;;10.70;6.65;;;;;;;17.26;73.65;99927.48;1784547;80;21173;-75
2021/06/12 03:55:19;;;;;;;9.98;6.83;;;;;;;17.27;73.68;99927.80;1783725;80;20910;-75
2021/06/12 03:57:45;;;;;;;11.08;7.10;;;;;;;17.36;73.38;99929.23;1783962;80;20981;-74
2021/06/12 04:00:13;;;;;;;15.43;6.85;;;;;;;17.44;73.29;99918.34;1783832;80;21169;-75
2021/06/12 04:02:40;;;;;;;9.48;6.67;;;;;;;17.64;72.66;99928.99;1783169;80;21133;-76
2021/06/12 04:05:07;;;;;;;11.65;6.67;;;;;;;17.71;72.59;99928.97;1783105;80;21077;-76
2021/06/12 04:07:33;;;;;;;10.60;6.40;;;;;;;17.76;72.49;99925.18;1781678;80;21052;-75
2021/06/12 04:09:59;;;;;;;11.35;6.12;;;;;;;17.82;72.29;99926.17;1783232;80;21948;-75
2021/06/12 04:12:25;;;;;;;12.73;6.67;;;;;;;17.70;72.94;99928.16;1780760;80;21144;-75
2021/06/12 04:14:50;;;;;;;10.03;6.62;;;;;;;17.59;73.61;99930.14;1783617;80;22087;-76
2021/06/12 04:17:16;;;;;;;13.28;7.25;;;;;;;17.61;73.61;99923.26;1783213;80;22072;-76
2021/06/12 04:19:42;;;;;;;12.47;7.00;;;;;;;17.48;74.11;99926.25;1784210;80;21043;-74
2021/06/12 04:22:08;;;;;;;11.18;7.20;;;;;;;17.39;74.48;99920.81;1783211;80;20894;-76
2021/06/12 04:24:34;;;;;;;11.83;7.03;;;;;;;17.48;74.36;99916.91;1784403;80;20850;-78
2021/06/12 04:27:00;;;;;;;11.20;6.25;;;;;;;17.67;73.74;99927.77;1785108;80;21271;-80
2021/06/12 04:29:26;;;;;;;9.15;6.67;;;;;;;17.83;73.32;99930.50;1783233;80;20890;-79
2021/06/12 04:31:51;;;;;;;8.50;6.50;;;;;;;17.83;73.49;99927.30;1783513;80;21135;-79
2021/06/12 04:34:17;;;;;;;11.15;6.90;;;;;;;17.86;73.62;99931.42;1784846;80;20870;-79
2021/06/12 04:36:43;;;;;;;13.48;7.28;;;;;;;17.83;74.21;99929.98;1784351;80;21714;-78
2021/06/12 04:39:09;;;;;;;10.95;6.78;;;;;;;17.94;74.05;99929.38;1779888;80;22192;-78
2021/06/12 04:41:34;;;;;;;14.95;6.97;;;;;;;17.98;74.34;99927.63;1780352;80;21028;-76
2021/06/12 04:44:00;;;;;;;11.33;7.10;;;;;;;18.03;74.63;99933.96;1782667;80;21523;-77
2021/06/12 04:46:26;;;;;;;10.08;7.03;;;;;;;18.04;75.11;99941.48;1777038;80;21978;-78
2021/06/12 04:48:51;;;;;;;10.18;7.12;;;;;;;18.08;75.29;99942.69;1782935;80;20914;-77
2021/06/12 04:51:17;;;;;;;12.18;7.85;;;;;;;18.14;75.52;99941.03;1783901;80;21970;-77
2021/06/12 04:53:43;;;;;;;12.60;7.78;;;;;;;18.27;75.69;99938.29;1783202;80;21195;-78
2021/06/12 04:56:09;;;;;;;13.00;8.60;;;;;;;18.27;75.69;99938.29;1784155;80;20980;-78
2021/06/12 04:58:34;;;;;;;11.35;8.30;;;;;;;18.32;75.54;99930.97;1784208;80;21031;-78
2021/06/12 05:01:00;;;;;;;13.25;7.80;;;;;;;18.36;75.80;99930.86;1784127;80;21169;-77
2021/06/12 05:03:26;;;;;;;13.48;8.18;;;;;;;18.48;75.46;99927.81;1784386;80;21955;-78
2021/06/12 05:05:52;;;;;;;15.93;8.40;;;;;;;18.52;75.64;99918.34;1781207;80;21873;-79
2021/06/12 05:08:17;;;;;;;12.25;7.30;;;;;;;18.56;75.73;99923.55;1783445;80;20906;-79
2021/06/12 05:10:44;;;;;;;14.83;8.50;;;;;;;18.65;75.55;99920.12;1784521;80;21089;-79
2021/06/12 05:13:09;;;;;;;12.18;8.03;;;;;;;18.72;75.44;99918.23;1752520;80;21560;-77
2021/06/12 05:15:35;;;;;;;12.07;7.55;;;;;;;18.88;75.04;99918.75;1782729;80;21281;-79
2021/06/12 05:18:05;;;;;;;12.33;7.97;;;;;;;18.96;74.82;99912.63;1784089;80;21627;-78
2021/06/12 05:20:32;;;;;;;13.05;7.80;;;;;;;19.10;74.28;99917.89;1782780;80;21037;-78
2021/06/12 05:22:58;;;;;;;13.65;7.95;;;;;;;19.17;74.00;99915.97;1784167;80;20964;-78
2021/06/12 05:25:24;;;;;;;11.83;7.70;;;;;;;19.27;73.83;99916.30;1784733;80;20898;-77
2021/06/12 05:27:50;;;;;;;11.30;7.92;;;;;;;19.38;73.65;99912.90;1784131;80;21336;-77
2021/06/12 05:30:17;;;;;;;17.98;7.92;;;;;;;19.54;73.04;99915.55;1783702;80;20862;-78
2021/06/12 05:32:43;;;;;;;11.40;7.53;;;;;;;19.65;72.75;99907.81;1784042;80;21072;-77
2021/06/12 05:35:10;;;;;;;11.85;7.72;;;;;;;19.76;72.64;99915.63;1784607;80;20921;-78
2021/06/12 05:37:36;;;;;;;12.28;8.23;;;;;;;19.88;72.38;99908.52;1781364;80;21092;-78
2021/06/12 05:40:04;;;;;;;13.45;7.62;;;;;;;19.89;72.24;99902.13;1784474;79;21567;-78
2021/06/12 05:42:30;;;;;;;12.37;7.72;;;;;;;19.98;71.84;99899.95;1773327;80;20950;-78
2021/06/12 05:44:56;;;;;;;13.15;7.05;;;;;;;20.19;71.17;99901.36;1784076;80;21164;-78
2021/06/12 05:47:21;;;;;;;11.28;6.95;;;;;;;20.37;70.74;99890.60;1784642;80;20893;-77
2021/06/12 05:49:47;;;;;;;10.78;7.10;;;;;;;20.39;69.54;99895.73;1783798;80;21064;-77
2021/06/12 05:52:13;;;;;;;8.95;6.25;;;;;;;20.39;69.54;99895.73;1784685;80;21175;-77
2021/06/12 05:54:38;;;;;;;11.00;6.87;;;;;;;20.58;69.26;99896.50;1784428;80;20961;-76
2021/06/12 05:57:05;;;;;;;13.80;6.60;;;;;;;20.55;69.17;99900.98;1784848;80;20917;-79
2021/06/12 05:59:31;;;;;;;10.83;6.03;;;;;;;20.60;69.29;99899.77;1785043;80;21065;-78
2021/06/12 06:01:57;;;;;;;9.55;6.28;;;;;;;20.72;69.21;99892.59;1783815;80;20957;-78
2021/06/12 06:04:22;;;;;;;9.65;5.65;;;;;;;20.91;68.96;99899.23;1781888;80;21983;-77
2021/06/12 06:06:50;;;;;;;9.35;5.65;;;;;;;20.97;68.49;99899.66;1784501;80;21016;-78
2021/06/12 06:09:15;;;;;;;;;;;;;;;21.07;68.16;99897.23;1752762;80;21065;-77
2021/06/12 06:11:41;;;;;;;7.87;6.17;;;;;;;21.05;68.06;99896.66;1783605;80;20553;-78
2021/06/12 06:14:07;;;;;;;10.70;5.85;;;;;;;21.14;67.79;99885.84;1783906;80;20914;-76
2021/06/12 06:16:33;;;;;;;12.45;5.87;;;;;;;21.23;67.92;99886.86;1783150;80;21064;-77
2021/06/12 06:18:59;;;;;;;8.88;5.37;;;;;;;21.23;67.92;99886.86;1782661;80;20867;-77
2021/06/12 06:21:24;;;;;;;8.03;5.20;;;;;;;21.23;67.40;99886.86;1784298;80;21134;-78
2021/06/12 06:23:50;;;;;;;10.58;5.10;;;;;;;21.41;66.61;99892.62;1780928;80;20878;-76
2021/06/12 06:26:16;;;;;;;8.95;5.20;;;;;;;21.41;66.51;99886.74;1783766;80;20866;-78
2021/06/12 06:28:42;;;;;;;6.97;4.70;;;;;;;21.54;65.96;99887.58;1784108;80;21797;-77
2021/06/12 06:31:08;;;;;;;7.50;4.50;;;;;;;21.67;65.00;99886.81;1781476;80;21723;-77
2021/06/12 06:33:34;;;;;;;7.90;4.67;;;;;;;21.67;64.97;99884.63;1785279;80;20894;-80
2021/06/12 06:35:59;;;;;;;7.62;4.45;;;;;;;21.75;64.81;99891.52;1784185;80;20977;-77
2021/06/12 06:38:25;;;;;;;8.35;4.75;;;;;;;21.84;64.16;99888.21;1783262;80;20910;-77
2021/06/12 06:40:52;;;;;;;7.45;4.50;;;;;;;21.80;63.63;99886.27;1782205;80;21330;-78
2021/06/12 06:43:17;;;;;;;9.53;4.17;;;;;;;21.95;62.84;99882.52;1782870;80;21267;-77
2021/06/12 06:45:43;;;;;;;7.33;4.12;;;;;;;22.12;62.17;99884.47;1784823;80;21035;-79
2021/06/12 06:48:16;;;;;;;9.00;3.95;;;;;;;22.23;62.20;99887.64;1784256;80;21914;-78
2021/06/12 06:50:43;;;;;;;7.70;4.35;;;;;;;22.24;61.67;99879.33;1756818;80;21002;-77
2021/06/12 06:53:09;;;;;;;7.20;3.77;;;;;;;22.43;61.54;99891.81;1783228;80;21989;-77
2021/06/12 06:55:35;;;;;;;5.85;4.00;;;;;;;22.37;61.19;99885.52;1782893;80;21150;-78
2021/06/12 06:58:01;;;;;;;6.62;4.25;;;;;;;22.42;60.84;99884.28;1784265;80;21896;-76
2021/06/12 07:00:27;;;;;;;10.05;4.40;;;;;;;22.50;60.82;99882.54;1785264;80;21340;-77
2021/06/12 07:02:54;;;;;;;6.10;4.10;;;;;;;22.49;61.84;99886.28;1782991;80;21056;-78
2021/06/12 07:05:20;;;;;;;6.47;4.40;;;;;;;22.54;61.81;99883.70;1782398;80;21093;-79
2021/06/12 07:07:46;;;;;;;6.10;4.22;;;;;;;22.55;62.04;99887.20;1784044;80;20989;-76
2021/06/12 07:10:12;;;;;;;10.00;4.40;;;;;;;22.49;62.06;99886.28;1784849;80;20997;-77
2021/06/12 07:12:37;;;;;;;6.60;3.92;;;;;;;22.52;61.77;99888.48;1784926;80;21839;-77
2021/06/12 07:15:05;;;;;;;5.58;3.83;;;;;;;22.61;61.45;99882.70;1784242;80;21138;-76
2021/06/12 07:17:30;;;;;;;6.85;4.17;;;;;;;22.65;60.40;99878.48;1783865;80;21122;-76
2021/06/12 07:19:57;;;;;;;6.42;4.12;;;;;;;22.79;60.86;99877.09;1783250;80;21641;-77
2021/06/12 07:22:23;;;;;;;6.87;4.10;;;;;;;22.80;59.71;99877.94;1783886;80;21167;-77
2021/06/12 07:24:49;;;;;;;7.03;3.75;;;;;;;22.94;59.15;99881.92;1784246;80;21052;-78
2021/06/12 07:27:17;;;;;;;6.47;4.12;;;;;;;23.04;58.35;99871.84;1782103;80;20890;-78
2021/06/12 07:29:43;;;;;;;7.55;4.00;;;;;;;23.09;59.83;99865.23;1784588;80;21328;-79
2021/06/12 07:32:09;;;;;;;5.30;3.77;;;;;;;23.17;59.27;99859.42;1782913;80;20910;-77
2021/06/12 07:34:35;;;;;;;6.50;4.05;;;;;;;23.24;58.94;99857.39;1782556;80;20949;-77
2021/06/12 07:37:00;;;;;;;6.33;3.65;;;;;;;23.28;58.61;99853.11;1783382;80;21114;-78
2021/06/12 07:39:27;;;;;;;11.30;4.17;;;;;;;23.37;58.54;99855.38;1783862;80;21621;-78
2021/06/12 07:41:53;;;;;;;6.15;3.85;;;;;;;23.45;57.97;99854.97;1783936;80;21172;-82
2021/06/12 07:44:19;;;;;;;6.20;3.70;;;;;;;23.52;57.49;99856.94;1782791;80;20902;-78
2021/06/12 07:46:44;;;;;;;9.23;4.03;;;;;;;23.56;56.56;99857.27;1783055;80;21680;-80
2021/06/12 07:49:11;;;;;;;5.95;4.12;;;;;;;23.43;56.76;99854.38;1784403;80;21024;-78
2021/06/12 07:51:40;;;;;;;7.30;4.00;;;;;;;23.44;57.12;99856.03;1784544;80;21676;-79
2021/06/12 07:54:05;;;;;;;6.37;4.15;;;;;;;23.40;57.74;99849.49;1783130;80;21073;-79
2021/06/12 07:56:31;;;;;;;10.08;4.12;;;;;;;23.42;57.02;99850.08;1783305;80;21197;-79
2021/06/12 07:58:57;;;;;;;7.55;4.70;;;;;;;23.62;57.32;99850.34;1783709;80;21077;-78
2021/06/12 08:01:23;;;;;;;8.83;4.50;;;;;;;23.66;57.15;99840.70;1784696;80;20851;-79
2021/06/12 08:03:48;;;;;;;6.85;4.12;;;;;;;23.80;56.91;99836.27;1782349;80;21250;-78
2021/06/12 08:06:14;;;;;;;8.18;4.30;;;;;;;23.96;56.31;99832.72;1783116;80;22021;-79
2021/06/12 08:08:40;;;;;;;7.80;4.20;;;;;;;23.91;56.37;99830.48;1781574;80;21704;-78
2021/06/12 08:11:06;;;;;;;6.60;3.92;;;;;;;24.16;56.32;99826.73;1783210;80;21127;-78
2021/06/12 08:13:31;;;;;;;11.80;4.28;;;;;;;24.16;54.80;99836.17;1783912;80;21177;-78
2021/06/12 08:15:57;;;;;;;6.70;3.75;;;;;;;23.89;56.07;99836.13;1784582;80;21118;-78
2021/06/12 08:18:23;;;;;;;5.58;3.58;;;;;;;23.99;55.08;99833.56;1782489;80;21172;-78
2021/06/12 08:20:49;;;;;;;4.60;3.22;;;;;;;23.95;54.90;99832.42;1782578;80;21407;-78
2021/06/12 08:23:16;;;;;;;7.15;3.27;;;;;;;24.05;53.51;99841.70;1782571;80;22070;-76
2021/06/12 08:25:42;;;;;;;7.25;3.37;;;;;;;24.17;53.46;99834.28;1784172;80;21866;-79
2021/06/12 08:28:07;;;;;;;4.60;3.37;;;;;;;24.26;53.64;99830.05;1782862;80;21688;-78
2021/06/12 08:30:36;;;;;;;9.20;3.37;;;;;;;24.29;53.23;99826.84;1782453;80;21066;-78
2021/06/12 08:33:06;;;;;;;5.95;3.37;;;;;;;24.32;52.95;99820.94;1781825;80;21770;-78
2021/06/12 08:35:32;;;;;;;8.35;3.42;;;;;;;24.38;52.71;99825.86;1781024;80;21531;-77
2021/06/12 08:37:58;;;;;;;6.33;3.27;;;;;;;24.54;52.45;99815.46;1782081;80;21685;-77
2021/06/12 08:40:24;;;;;;;4.05;3.10;;;;;;;24.64;52.54;99818.83;1783344;80;21165;-78
2021/06/12 08:42:50;;;;;;;4.20;3.00;;;;;;;24.78;52.52;99815.68;1782913;80;22058;-78
2021/06/12 08:45:17;;;;;;;4.80;3.10;;;;;;;24.69;52.62;99806.72;1781208;80;21017;-78
2021/06/12 08:47:43;;;;;;;;;;;;;;;24.18;52.93;99808.39;1785340;80;20980;-79
2021/06/12 08:50:10;;;;;;;6.33;3.20;;;;;;;24.42;52.46;99811.31;1784540;80;20159;-78
2021/06/12 08:52:36;;;;;;;4.33;3.12;;;;;;;24.53;52.64;99807.62;1784468;80;21764;-79
2021/06/12 08:55:05;;;;;;;8.15;3.40;;;;;;;24.57;52.26;99802.55;1783655;80;21173;-79
2021/06/12 08:57:31;;;;;;;4.47;3.10;;;;;;;24.56;51.54;99801.70;1785087;80;21218;-78
2021/06/12 08:59:56;;;;;;;4.47;3.00;;;;;;;24.17;52.62;99793.81;1784076;80;20892;-79
2021/06/12 09:02:22;;;;;;;4.87;3.17;;;;;;;24.42;52.45;99801.31;1782089;80;28214;-79
2021/06/12 09:04:50;;;;;;;5.40;3.05;;;;;;;24.56;51.73;99799.01;1784326;80;20914;-79
2021/06/12 09:07:28;;;;;;;7.10;2.95;;;;;;;24.64;52.03;99794.53;1777489;80;21247;-78
2021/06/12 09:09:58;;;;;;;6.05;2.90;;;;;;;24.67;51.39;99794.53;1784106;80;21088;-76
2021/06/12 09:12:47;;;;;;;5.75;2.98;;;;;;;24.66;50.59;99797.78;1782177;80;20969;-78
2021/06/12 09:15:20;;;;;;;4.33;3.22;;;;;;;24.52;51.25;99789.81;1782198;80;21085;-77
2021/06/12 09:17:50;;;;;;;6.50;3.22;;;;;;;24.41;51.50;99796.17;1783968;80;21044;-79
2021/06/12 09:20:21;;;;;;;7.83;3.10;;;;;;;24.42;51.84;99791.06;1782785;80;21134;-80
2021/06/12 09:22:46;;;;;;;5.85;2.83;;;;;;;24.32;51.71;99788.55;1774325;78;21101;-79
2021/06/12 09:25:34;;;;;;;4.20;2.83;;;;;;;24.23;52.36;99787.39;1726270;80;21060;-78
2021/06/12 09:28:00;;;;;;;4.33;2.60;;;;;;;24.47;51.70;99784.35;1774110;80;21343;-79
2021/06/12 09:30:29;;;;;;;5.40;3.00;;;;;;;24.58;51.29;99791.52;1782058;80;20873;-78
2021/06/12 09:32:55;;;;;;;7.70;3.10;;;;;;;24.48;51.80;99784.09;1784485;80;21348;-78
2021/06/12 09:35:37;;;;;;;3.22;2.67;;;;;;;24.60;50.96;99782.61;1784544;80;21149;-77
2021/06/12 09:38:28;;;;;;;3.55;2.85;;;;;;;24.89;50.15;99772.80;1772559;80;21076;-78
2021/06/12 09:40:54;;;;;;;5.00;2.77;;;;;;;24.86;50.76;99774.67;1778353;80;21076;-78
2021/06/12 09:43:31;;;;;;;4.85;2.90;;;;;;;24.89;50.22;99783.61;1783272;80;21027;-78
2021/06/12 09:45:57;;;;;;;9.90;2.72;;;;;;;24.70;49.99;99783.22;1773221;80;21037;-78
2021/06/12 09:48:23;;;;;;;4.37;3.00;;;;;;;24.77;49.77;99774.37;1783064;80;20898;-77
2021/06/12 09:50:53;;;;;;;4.87;2.80;;;;;;;24.84;49.20;99776.83;1784391;80;21033;-77
2021/06/12 09:53:22;;;;;;;4.78;2.62;;;;;;;24.94;49.81;99767.45;1747446;80;21054;-77
2021/06/12 09:55:48;;;;;;;5.17;3.00;;;;;;;25.09;49.70;99759.44;1782921;80;21791;-77
2021/06/12 09:58:14;;;;;;;4.22;2.83;;;;;;;24.97;49.74;99763.40;1782348;80;21295;-78
2021/06/12 10:00:45;;;;;;;4.00;3.07;;;;;;;25.10;49.99;99757.55;1782494;80;21578;-79
2021/06/12 10:03:23;;;;;;;4.15;2.92;;;;;;;24.83;50.67;99753.62;1749557;80;21078;-77
2021/06/12 10:06:12;;;;;;;7.22;3.05;;;;;;;24.88;50.13;99748.24;1749120;80;39327;-78
2021/06/12 10:08:42;;;;;;;4.97;2.90;;;;;;;25.11;50.24;99748.89;1773998;78;21005;-76
2021/06/12 10:11:08;;;;;;;5.90;3.30;;;;;;;25.35;50.08;99737.15;1782469;80;20938;-79
2021/06/12 10:13:34;;;;;;;6.60;3.15;;;;;;;25.19;49.78;99743.00;1783947;80;21041;-79
2021/06/12 10:16:00;;;;;;;6.33;2.92;;;;;;;25.25;49.80;99731.14;1783830;80;25335;-79
2021/06/12 10:18:26;;;;;;;4.07;3.13;;;;;;;25.29;49.96;99732.25;1783524;80;20878;-79
2021/06/12 10:20:52;;;;;;;4.75;2.72;;;;;;;25.42;49.54;99723.66;1784035;80;20905;-80
2021/06/12 10:23:17;;;;;;;4.42;2.83;;;;;;;25.49;48.74;99721.25;1783088;80;20982;-79
2021/06/12 10:25:43;;;;;;;4.17;3.30;;;;;;;25.38;49.09;99717.15;1784308;80;28390;-82
2021/06/12 10:28:10;;;;;;;6.50;3.57;;;;;;;25.44;49.28;99714.73;1783698;80;20863;-80
2021/06/12 10:30:35;;;;;;;7.20;3.37;;;;;;;25.59;49.22;99714.50;1782383;80;21096;-83
2021/06/12 10:33:01;;;;;;;6.58;3.58;;;;;;;25.46;49.55;99700.16;1784012;80;20925;-82
2021/06/12 10:35:28;;;;;;;4.62;3.08;;;;;;;25.40;49.77;99700.15;1783876;80;21412;-82
2021/06/12 10:38:08;;;;;;;6.17;3.80;;;;;;;25.29;49.97;99709.83;1783996;80;21144;-81
2021/06/12 10:40:50;;;;;;;4.28;3.22;;;;;;;25.28;49.97;99710.34;1780760;80;20993;-81
2021/06/12 10:43:20;;;;;;;5.67;3.35;;;;;;;25.40;50.02;99698.80;1771112;80;21070;-79
2021/06/12 10:46:08;;;;;;;5.35;3.50;;;;;;;25.54;51.10;99699.62;1785079;80;21053;-80
2021/06/12 10:48:44;;;;;;;4.67;3.40;;;;;;;25.63;51.43;99690.72;1784176;80;21327;-79
2021/06/12 10:51:14;;;;;;;4.63;3.47;;;;;;;25.63;51.43;99690.72;1782379;80;21647;-79
2021/06/12 10:53:41;;;;;;;6.80;3.98;;;;;;;25.42;51.41;99686.37;1781391;80;21555;-82
2021/06/12 10:56:11;;;;;;;5.50;3.47;;;;;;;25.59;51.26;99688.81;1784105;80;21354;-81
2021/06/12 10:58:39;;;;;;;5.92;3.62;;;;;;;25.72;51.33;99682.91;1784613;78;21323;-81
2021/06/12 11:01:17;;;;;;;7.92;3.80;;;;;;;25.55;51.09;99676.92;1783677;80;21166;-82
2021/06/12 11:06:50;;;;;;;5.60;3.72;;;;;;;25.59;51.11;99670.72;1782474;80;21218;-81
2021/06/12 11:09:21;;;;;;;4.93;3.30;;;;;;;25.40;50.41;99658.25;1783505;80;20945;-82
2021/06/12 11:11:56;;;;;;;5.30;3.30;;;;;;;25.25;51.50;99641.41;1783473;80;21670;-79
2021/06/12 11:14:25;;;;;;;6.70;3.40;;;;;;;25.22;51.72;99651.95;1783933;80;21139;-80
2021/06/12 11:17:12;;;;;;;8.70;3.62;;;;;;;25.22;51.72;99651.95;1782967;80;21037;-82
2021/06/12 11:19:58;;;;;;;6.78;3.65;;;;;;;25.05;55.24;99654.31;1782671;80;21013;-79
2021/06/12 11:22:36;;;;;;;6.05;3.42;;;;;;;24.73;58.07;99670.12;1782957;80;21060;-81
2021/06/12 11:25:13;;;;;;;6.15;3.58;;;;;;;24.93;56.53;99649.67;1784522;80;21158;-80
2021/06/12 11:27:46;;;;;;;6.40;3.65;;;;;;;25.11;58.19;99635.41;1782713;80;22019;-83
2021/06/12 11:30:22;;;;;;;5.15;3.47;;;;;;;25.07;59.04;99625.13;1781407;78;21793;-79
2021/06/12 11:33:00;;;;;;;4.53;3.12;;;;;;;24.96;59.53;99615.38;1781314;80;21009;-81
2021/06/12 11:35:49;;;;;;;5.83;3.20;;;;;;;25.19;60.88;99598.44;1782041;80;21041;-80
2021/06/12 11:38:19;;;;;;;6.70;3.60;;;;;;;25.25;59.91;99600.08;1767800;80;21256;-81